Main page
Satellite images 10-day forecastsClimateMarine weather Cyclones Lightning AirportsFAQ Newsletter About
Weather : Europe Africa North America South America Asia Australia-Oceania Others
Languages Contact

Longyearbyen, Longyear,

Svalbard Airport

latitude: Norway, longitude: 78-15N, elevation: 015-28E m


METAR: ENSB 022050Z 01007KT 9999 BKN025 01/M05 Q1015 RMK WIND 1400FT 01008KT
TAF: ENSB 0221/0321 33005KT 9999 FEW015 SCT030

Time: 23:41 (21:41 UTC)

Current weather observation

The report was made 51 minutes ago, at 20:50 UTC
Wind 7 kt from the North
Temperature 1°C
Humidity 64%
Pressure 1015 hPa
Visibility 10 km or more
Broken clouds at a height of 2500 ft

Change units

Forecast

Forecast valid from 02 at 21 UTC to 03 at 21 UTC
Wind 5 kt from the North/Northwest
Visibility 10 km or more
Few clouds at a height of 1500 ft
Scattered clouds at a height of 3000 ft
The information on this site is subject to a disclaimer
Weather : Europe Africa North America South America Asia Australia-Oceania Others
Satellite images 10-day forecastsClimateMarine weather Cyclones Lightning AirportsFAQ Languages Contact Newsletter About